createdAt,value
2023-01-13T00:01:31.124Z,4.81
2023-01-13T00:04:00.294Z,4.76
2023-01-13T00:06:29.503Z,4.69
2023-01-13T00:08:58.106Z,4.70
2023-01-13T00:11:26.526Z,4.64
2023-01-13T00:13:56.224Z,4.62
2023-01-13T00:16:25.399Z,4.65
2023-01-13T00:18:53.556Z,4.65
2023-01-13T00:21:24.686Z,4.64
2023-01-13T00:23:54.893Z,4.63
2023-01-13T00:26:26.214Z,4.63
2023-01-13T00:28:59.308Z,4.64
2023-01-13T00:31:29.417Z,4.66
2023-01-13T00:33:59.196Z,4.62
2023-01-13T00:36:28.888Z,4.65
2023-01-13T00:38:57.580Z,4.59
2023-01-13T00:41:27.245Z,4.56
2023-01-13T00:43:55.596Z,4.53
2023-01-13T00:46:23.989Z,4.51
2023-01-13T00:48:52.221Z,4.53
2023-01-13T00:51:24.234Z,4.53
2023-01-13T00:53:52.549Z,4.55
2023-01-13T00:56:40.833Z,4.56
2023-01-13T00:59:14.323Z,4.56
2023-01-13T01:01:43.057Z,4.57
2023-01-13T01:04:12.241Z,4.55
2023-01-13T01:06:40.479Z,4.54
2023-01-13T01:09:15.990Z,4.57
2023-01-13T01:11:45.156Z,4.58
2023-01-13T01:14:14.184Z,4.55
2023-01-13T01:16:42.533Z,4.50
2023-01-13T01:19:10.880Z,4.47
2023-01-13T01:21:39.228Z,4.47
2023-01-13T01:24:07.558Z,4.47
2023-01-13T01:26:35.717Z,4.45
2023-01-13T01:29:03.998Z,4.44
2023-01-13T01:31:33.919Z,4.42
2023-01-13T01:34:02.942Z,4.42
2023-01-13T01:36:31.216Z,4.46
2023-01-13T01:39:00.063Z,4.49
2023-01-13T01:41:32.379Z,4.54
2023-01-13T01:44:38.305Z,4.57
2023-01-13T01:47:06.478Z,4.57
2023-01-13T01:49:37.877Z,4.54
2023-01-13T01:52:17.156Z,4.52
2023-01-13T01:54:55.062Z,4.49
2023-01-13T01:57:54.167Z,4.48
2023-01-13T02:00:22.830Z,4.49
2023-01-13T02:02:52.297Z,4.49
2023-01-13T02:05:21.209Z,4.46
2023-01-13T02:07:52.393Z,4.44
2023-01-13T02:10:23.627Z,4.42
2023-01-13T02:12:54.216Z,4.38
2023-01-13T02:15:30.915Z,4.35
2023-01-13T02:18:51.600Z,4.28
2023-01-13T02:21:39.950Z,4.21
2023-01-13T02:24:48.784Z,4.18
2023-01-13T02:27:34.467Z,4.16
2023-01-13T02:30:27.133Z,4.13
2023-01-13T02:32:55.184Z,4.11
2023-01-13T02:35:51.748Z,4.10
2023-01-13T02:38:28.882Z,4.08
2023-01-13T02:41:24.786Z,4.02
2023-01-13T02:44:07.616Z,3.99
2023-01-13T02:46:58.071Z,3.98
2023-01-13T02:49:41.258Z,3.99
2023-01-13T02:52:29.415Z,4.04
2023-01-13T02:55:05.399Z,4.12
2023-01-13T02:57:35.723Z,4.19
2023-01-13T03:00:07.751Z,4.24
2023-01-13T03:02:36.040Z,4.24
2023-01-13T03:05:05.525Z,4.21
2023-01-13T03:07:57.130Z,4.21
2023-01-13T03:10:50.054Z,4.21
2023-01-13T03:13:49.021Z,4.24
2023-01-13T03:16:28.533Z,4.26
2023-01-13T03:19:15.322Z,4.29
2023-01-13T03:21:59.284Z,4.32
2023-01-13T03:24:38.083Z,4.30
2023-01-13T03:27:30.196Z,4.22
2023-01-13T03:30:03.633Z,4.10
2023-01-13T03:32:39.121Z,4.06
2023-01-13T03:35:23.679Z,4.03
2023-01-13T03:38:06.810Z,4.04
2023-01-13T03:40:42.159Z,4.08
2023-01-13T03:43:35.188Z,4.12
2023-01-13T03:46:09.871Z,4.15
2023-01-13T03:48:41.011Z,4.12
2023-01-13T03:51:13.963Z,4.04
2023-01-13T03:53:49.856Z,3.96
2023-01-13T03:56:27.122Z,3.97
2023-01-13T03:58:55.267Z,3.88
2023-01-13T04:01:29.259Z,3.86
2023-01-13T04:04:01.820Z,3.90
2023-01-13T04:06:36.283Z,3.93
2023-01-13T04:09:28.287Z,3.93
2023-01-13T04:12:13.061Z,3.96
2023-01-13T04:14:42.762Z,4.02
2023-01-13T04:17:11.198Z,4.03
2023-01-13T04:19:39.394Z,4.07
2023-01-13T04:22:07.530Z,4.10
2023-01-13T04:24:37.363Z,4.11
2023-01-13T04:27:06.377Z,4.14
2023-01-13T04:29:34.494Z,4.17
2023-01-13T04:32:02.734Z,4.18
2023-01-13T04:34:31.371Z,4.19
2023-01-13T04:36:59.484Z,4.18
2023-01-13T04:39:27.737Z,4.18
2023-01-13T04:41:58.608Z,4.16
2023-01-13T04:44:27.561Z,4.13
2023-01-13T04:46:56.007Z,4.11
2023-01-13T04:49:24.170Z,4.08
2023-01-13T04:51:52.475Z,4.05
2023-01-13T04:54:21.030Z,4.04
2023-01-13T04:56:49.097Z,4.05
2023-01-13T04:59:17.137Z,4.08
2023-01-13T05:01:45.400Z,4.10
2023-01-13T05:04:15.561Z,4.10
2023-01-13T05:06:43.748Z,4.12
2023-01-13T05:09:13.550Z,4.14
2023-01-13T05:12:00.895Z,4.14
2023-01-13T05:14:48.066Z,4.11
2023-01-13T05:17:23.274Z,3.98
2023-01-13T05:19:51.871Z,3.91
2023-01-13T05:22:38.915Z,3.82
2023-01-13T05:25:22.328Z,3.75
2023-01-13T05:27:55.621Z,3.75
2023-01-13T05:30:30.058Z,3.75
2023-01-13T05:32:58.663Z,3.72
2023-01-13T05:35:26.853Z,3.69
2023-01-13T05:37:56.142Z,3.66
2023-01-13T05:40:42.833Z,3.61
2023-01-13T05:43:20.153Z,3.52
2023-01-13T05:46:09.935Z,3.45
2023-01-13T05:48:46.158Z,3.36
2023-01-13T05:51:17.542Z,3.23
2023-01-13T05:53:45.942Z,3.12
2023-01-13T05:56:20.734Z,3.06
2023-01-13T05:58:50.139Z,3.04
2023-01-13T06:01:18.656Z,3.02
2023-01-13T06:03:55.750Z,3.00
2023-01-13T06:06:23.985Z,2.98
2023-01-13T06:08:54.403Z,2.92
2023-01-13T06:11:24.264Z,2.81
2023-01-13T06:13:52.585Z,2.70
2023-01-13T06:16:21.429Z,2.60
2023-01-13T06:18:52.548Z,2.52
2023-01-13T06:21:21.902Z,2.43
2023-01-13T06:23:50.127Z,2.37
2023-01-13T06:26:24.165Z,2.35
2023-01-13T06:28:52.564Z,2.32
2023-01-13T06:31:22.161Z,2.32
2023-01-13T06:34:00.161Z,2.28
2023-01-13T06:36:43.536Z,2.23
2023-01-13T06:39:17.606Z,2.15
2023-01-13T06:42:07.418Z,2.09
2023-01-13T06:44:36.135Z,2.16
2023-01-13T06:47:04.630Z,2.73
2023-01-13T06:49:32.780Z,3.54
2023-01-13T06:52:02.054Z,4.39
2023-01-13T06:54:34.952Z,5.29
2023-01-13T06:57:12.990Z,6.15
2023-01-13T06:59:44.361Z,6.68
2023-01-13T07:02:12.944Z,7.36
2023-01-13T07:04:44.509Z,8.01
2023-01-13T07:07:14.113Z,8.42
2023-01-13T07:09:42.964Z,8.73
2023-01-13T07:12:14.076Z,9.35
2023-01-13T07:15:02.243Z,9.90
2023-01-13T07:17:30.591Z,10.45
2023-01-13T07:19:59.370Z,10.91
2023-01-13T07:22:27.834Z,11.31
2023-01-13T07:25:00.148Z,11.49
2023-01-13T07:27:33.149Z,11.82
2023-01-13T07:30:02.268Z,12.52
2023-01-13T07:32:33.351Z,12.94
2023-01-13T07:35:05.710Z,13.42
2023-01-13T07:37:37.412Z,13.85
2023-01-13T07:40:06.406Z,14.40
2023-01-13T07:42:53.634Z,14.46
2023-01-13T07:45:22.637Z,14.67
2023-01-13T07:47:53.340Z,14.93
2023-01-13T07:50:25.625Z,15.88
2023-01-13T07:52:58.126Z,16.45
2023-01-13T07:55:26.379Z,17.05
2023-01-13T07:57:54.698Z,17.49
2023-01-13T08:00:23.566Z,17.72
2023-01-13T08:02:52.454Z,18.46
2023-01-13T08:05:20.715Z,18.77
2023-01-13T08:07:49.708Z,19.24
2023-01-13T08:10:18.063Z,19.55
2023-01-13T08:13:13.950Z,19.64
2023-01-13T08:15:50.065Z,19.41
2023-01-13T08:18:22.511Z,19.76
2023-01-13T08:20:55.173Z,19.13
2023-01-13T08:23:24.362Z,19.21
2023-01-13T08:25:52.820Z,19.82
2023-01-13T08:28:23.948Z,20.30
2023-01-13T08:30:54.518Z,19.89
2023-01-13T08:33:22.844Z,19.71
2023-01-13T08:35:53.585Z,19.40
2023-01-13T08:38:23.479Z,19.53
2023-01-13T08:40:52.089Z,19.44
2023-01-13T08:43:20.661Z,19.40
2023-01-13T08:46:00.203Z,19.61
2023-01-13T08:48:31.361Z,19.84
2023-01-13T08:51:03.947Z,19.88
2023-01-13T08:53:33.284Z,20.80
2023-01-13T08:56:01.677Z,20.72
2023-01-13T08:58:31.567Z,20.92
2023-01-13T09:01:05.409Z,21.03
2023-01-13T09:03:34.249Z,20.90
2023-01-13T09:06:03.090Z,20.90
2023-01-13T09:08:36.677Z,21.11
2023-01-13T09:11:26.896Z,21.67
2023-01-13T09:13:55.668Z,21.91
2023-01-13T09:16:23.953Z,21.81
2023-01-13T09:18:52.641Z,22.22
2023-01-13T09:21:23.289Z,22.70
2023-01-13T09:23:51.431Z,22.88
2023-01-13T09:26:21.598Z,23.22
2023-01-13T09:28:49.965Z,23.25
2023-01-13T09:31:18.163Z,22.91
2023-01-13T09:34:05.177Z,23.00
2023-01-13T09:36:33.556Z,23.29
2023-01-13T09:39:04.453Z,23.05
2023-01-13T09:42:02.558Z,23.33
2023-01-13T09:45:00.137Z,23.40
2023-01-13T09:47:36.349Z,23.43
2023-01-13T09:50:14.007Z,24.32
2023-01-13T09:52:43.661Z,24.62
2023-01-13T09:55:17.236Z,24.99
2023-01-13T09:57:45.802Z,25.47
2023-01-13T10:00:27.774Z,25.60
2023-01-13T10:03:08.257Z,25.69
2023-01-13T10:05:45.047Z,24.78
2023-01-13T10:08:21.003Z,22.62
2023-01-13T10:10:57.591Z,21.73
2023-01-13T10:13:28.837Z,22.01
2023-01-13T10:16:10.484Z,22.49
2023-01-13T10:18:55.088Z,23.06
2023-01-13T10:21:56.818Z,23.63
2023-01-13T10:24:48.143Z,23.76
2023-01-13T10:27:23.614Z,24.11
2023-01-13T10:29:51.780Z,24.74
2023-01-13T10:32:20.678Z,25.10
2023-01-13T10:34:52.533Z,25.21
2023-01-13T10:37:26.612Z,25.21
2023-01-13T10:39:57.340Z,25.39
2023-01-13T10:42:25.648Z,25.33
2023-01-13T10:44:58.788Z,25.92
2023-01-13T10:47:35.946Z,26.29
2023-01-13T10:50:13.221Z,25.96
2023-01-13T10:53:14.959Z,25.76
2023-01-13T10:55:44.179Z,26.37
2023-01-13T10:58:18.740Z,26.75
2023-01-13T11:00:49.526Z,26.89
2023-01-13T11:03:23.964Z,26.84
2023-01-13T11:05:57.828Z,26.72
2023-01-13T11:08:33.785Z,27.10
2023-01-13T11:11:02.780Z,27.10
2023-01-13T11:13:58.885Z,26.97
2023-01-13T11:16:28.117Z,27.15
2023-01-13T11:19:12.412Z,26.88
2023-01-13T11:22:01.747Z,27.15
2023-01-13T11:24:46.470Z,26.52
2023-01-13T11:27:38.414Z,26.59
2023-01-13T11:30:10.041Z,26.61
2023-01-13T11:33:07.468Z,26.82
2023-01-13T11:35:58.124Z,26.45
2023-01-13T11:38:49.179Z,26.64
2023-01-13T11:41:23.923Z,26.09
2023-01-13T11:44:01.018Z,25.64
2023-01-13T11:46:29.468Z,25.45
2023-01-13T11:48:58.041Z,25.64
2023-01-13T11:51:38.624Z,25.66
2023-01-13T11:54:24.442Z,25.55
2023-01-13T11:57:02.290Z,25.49
2023-01-13T11:59:45.833Z,24.76
2023-01-13T12:02:14.042Z,24.26
2023-01-13T12:04:57.537Z,23.48
2023-01-13T12:07:28.687Z,21.83
2023-01-13T12:10:30.103Z,20.42
2023-01-13T12:13:22.235Z,18.73
2023-01-13T12:16:41.978Z,17.45
2023-01-13T12:19:28.263Z,16.27
2023-01-13T12:22:08.231Z,15.54
2023-01-13T12:24:36.462Z,14.78
2023-01-13T12:27:10.752Z,14.29
2023-01-13T12:29:39.607Z,13.56
2023-01-13T12:32:16.724Z,12.99
2023-01-13T12:34:47.757Z,12.60
2023-01-13T12:37:38.632Z,12.28
2023-01-13T12:40:28.655Z,11.87
2023-01-13T12:43:38.577Z,11.53
2023-01-13T12:46:18.931Z,10.98
2023-01-13T12:49:05.018Z,10.76
2023-01-13T12:51:57.635Z,10.52
2023-01-13T12:54:49.087Z,10.25
2023-01-13T12:57:17.304Z,9.99
2023-01-13T13:00:04.562Z,9.76
2023-01-13T13:02:36.069Z,9.60
2023-01-13T13:05:24.606Z,9.54
2023-01-13T13:08:05.931Z,9.42
2023-01-13T13:10:39.117Z,9.20
2023-01-13T13:13:20.415Z,9.06
2023-01-13T13:15:51.199Z,8.81
2023-01-13T13:18:20.513Z,8.70
2023-01-13T13:20:55.176Z,8.57
2023-01-13T13:23:26.462Z,8.44
2023-01-13T13:26:16.555Z,8.38
2023-01-13T13:28:49.144Z,8.29
2023-01-13T13:31:45.102Z,8.22
2023-01-13T13:34:29.913Z,8.04
2023-01-13T13:37:59.529Z,7.99
2023-01-13T13:40:51.672Z,7.91
2023-01-13T13:43:59.342Z,7.82
2023-01-13T13:46:49.329Z,7.75
2023-01-13T13:49:34.446Z,7.75
2023-01-13T13:52:15.463Z,7.71
2023-01-13T13:54:48.088Z,7.66
2023-01-13T13:57:19.579Z,7.56
2023-01-13T13:59:54.074Z,7.55
2023-01-13T14:02:29.956Z,7.46
2023-01-13T14:05:24.475Z,7.46
2023-01-13T14:08:16.597Z,7.42
2023-01-13T14:10:46.377Z,7.38
2023-01-13T14:13:31.490Z,7.30
2023-01-13T14:16:05.708Z,7.22
2023-01-13T14:18:41.276Z,7.21
2023-01-13T14:21:38.874Z,7.10
2023-01-13T14:24:17.685Z,7.01
2023-01-13T14:26:51.527Z,6.93
2023-01-13T14:29:24.528Z,6.86
2023-01-13T14:31:54.779Z,6.86
2023-01-13T14:34:31.988Z,6.82
2023-01-13T14:37:03.163Z,6.73
2023-01-13T14:39:38.970Z,6.76
2023-01-13T14:42:14.352Z,6.69
2023-01-13T14:44:47.694Z,6.66
2023-01-13T14:47:36.079Z,6.65
2023-01-13T14:50:17.069Z,6.55
2023-01-13T14:52:52.813Z,6.46
2023-01-13T14:55:26.824Z,6.46
2023-01-13T14:58:20.648Z,6.41
2023-01-13T15:00:52.188Z,6.26
2023-01-13T15:03:22.069Z,6.20
2023-01-13T15:05:56.076Z,6.10
2023-01-13T15:08:31.547Z,6.02
2023-01-13T15:11:05.357Z,5.94
2023-01-13T15:13:55.561Z,5.88
2023-01-13T15:16:26.460Z,5.70
2023-01-13T15:18:55.870Z,5.63
2023-01-13T15:21:25.448Z,5.60
2023-01-13T15:23:53.677Z,5.56
2023-01-13T15:26:27.712Z,5.56
2023-01-13T15:28:57.854Z,5.48
2023-01-13T15:31:27.843Z,5.44
2023-01-13T15:33:56.254Z,5.37
2023-01-13T15:39:14.245Z,5.17
2023-01-13T15:42:01.122Z,5.09
2023-01-13T15:44:47.848Z,5.00
2023-01-13T15:47:15.959Z,4.92
2023-01-13T15:49:45.737Z,4.80
2023-01-13T15:52:21.670Z,4.66
2023-01-13T15:54:51.118Z,4.55
2023-01-13T15:57:34.249Z,4.49
2023-01-13T16:00:15.091Z,4.40
2023-01-13T16:02:44.622Z,4.22
2023-01-13T16:05:13.368Z,4.16
2023-01-13T16:07:41.574Z,4.13
2023-01-13T16:10:21.136Z,4.10
2023-01-13T16:12:49.381Z,4.07
2023-01-13T16:15:18.461Z,3.99
2023-01-13T16:17:46.784Z,3.91
2023-01-13T16:20:19.014Z,3.87
2023-01-13T16:22:47.150Z,3.80
2023-01-13T16:25:17.678Z,3.66
2023-01-13T16:27:46.832Z,3.51
2023-01-13T16:30:21.151Z,3.32
2023-01-13T16:32:49.375Z,3.22
2023-01-13T16:35:19.173Z,3.19
2023-01-13T16:37:48.618Z,3.20
2023-01-13T16:40:26.053Z,3.19
2023-01-13T16:42:54.127Z,3.19
2023-01-13T16:45:22.612Z,3.18
2023-01-13T16:47:52.893Z,3.13
2023-01-13T16:50:37.452Z,3.02
2023-01-13T16:53:06.425Z,2.81
2023-01-13T16:55:35.188Z,2.69
2023-01-13T16:58:04.268Z,2.56
2023-01-13T17:00:35.203Z,2.49
2023-01-13T17:03:03.399Z,2.47
2023-01-13T17:05:31.496Z,2.45
2023-01-13T17:08:00.313Z,2.40
2023-01-13T17:10:28.718Z,2.35
2023-01-13T17:12:58.354Z,2.24
2023-01-13T17:15:28.233Z,2.15
2023-01-13T17:17:57.344Z,2.14
2023-01-13T17:20:25.595Z,2.08
2023-01-13T17:22:58.794Z,2.02
2023-01-13T17:25:27.153Z,2.00
2023-01-13T17:27:56.084Z,2.00
2023-01-13T17:30:24.258Z,1.97
2023-01-13T17:32:52.431Z,1.93
2023-01-13T17:35:25.029Z,1.89
2023-01-13T17:37:54.269Z,1.88
2023-01-13T17:40:22.834Z,1.91
2023-01-13T17:42:50.965Z,1.94
2023-01-13T17:45:19.092Z,1.90
2023-01-13T17:47:47.546Z,1.87
2023-01-13T17:50:17.444Z,1.85
2023-01-13T17:52:45.623Z,1.83
2023-01-13T17:55:13.835Z,1.80
2023-01-13T17:57:41.967Z,1.77
2023-01-13T18:00:12.289Z,1.70
2023-01-13T18:02:40.455Z,1.63
2023-01-13T18:05:09.088Z,1.57
2023-01-13T18:07:37.290Z,1.50
2023-01-13T18:10:05.760Z,1.45
2023-01-13T18:12:34.951Z,1.39
2023-01-13T18:15:03.286Z,1.27
2023-01-13T18:17:31.462Z,1.22
2023-01-13T18:20:18.119Z,1.24
2023-01-13T18:23:04.885Z,1.27
2023-01-13T18:25:51.674Z,1.28
2023-01-13T18:28:19.862Z,1.19
2023-01-13T18:30:48.376Z,1.16
2023-01-13T18:33:16.647Z,1.14
2023-01-13T18:35:44.759Z,1.12
2023-01-13T18:38:16.428Z,1.11
2023-01-13T18:40:45.091Z,1.11
2023-01-13T18:43:13.592Z,1.09
2023-01-13T18:45:41.851Z,1.04
2023-01-13T18:48:10.581Z,1.01
2023-01-13T18:50:38.899Z,0.99
2023-01-13T18:53:08.199Z,0.97
2023-01-13T18:55:37.604Z,0.96
2023-01-13T18:58:06.031Z,0.96
2023-01-13T19:00:37.181Z,0.97
2023-01-13T19:05:36.005Z,0.82
2023-01-13T19:08:04.789Z,0.67
2023-01-13T19:10:33.357Z,0.53
2023-01-13T19:13:01.835Z,0.48
2023-01-13T19:15:30.469Z,0.44
2023-01-13T19:18:00.090Z,0.44
2023-01-13T19:20:28.380Z,0.48
2023-01-13T19:22:56.488Z,0.49
2023-01-13T19:25:24.672Z,0.50
2023-01-13T19:27:52.832Z,0.51
2023-01-13T19:30:21.172Z,0.52
2023-01-13T19:32:49.327Z,0.54
2023-01-13T19:35:18.217Z,0.49
2023-01-13T19:37:46.917Z,0.41
2023-01-13T19:40:15.818Z,0.30
2023-01-13T19:43:03.547Z,0.22
2023-01-13T19:45:35.232Z,0.15
2023-01-13T19:48:05.687Z,0.14
2023-01-13T19:50:38.872Z,0.14
2023-01-13T19:53:08.284Z,0.12
2023-01-13T19:55:36.433Z,0.14
2023-01-13T19:58:04.612Z,0.15
2023-01-13T20:00:33.496Z,0.15
2023-01-13T20:03:04.529Z,0.16
2023-01-13T20:05:32.749Z,0.16
2023-01-13T20:08:00.961Z,0.14
2023-01-13T20:10:30.739Z,0.15
2023-01-13T20:12:59.388Z,0.16
2023-01-13T20:15:28.161Z,0.20
2023-01-13T20:17:58.197Z,0.21
2023-01-13T20:20:27.473Z,0.17
2023-01-13T20:22:55.707Z,0.18
2023-01-13T20:25:23.970Z,0.17
2023-01-13T20:27:53.066Z,0.18
2023-01-13T20:30:21.640Z,0.22
2023-01-13T20:32:49.713Z,0.25
2023-01-13T20:35:18.503Z,0.24
2023-01-13T20:37:46.621Z,0.18
2023-01-13T20:40:15.933Z,0.13
2023-01-13T20:42:47.164Z,0.08
2023-01-13T20:45:20.519Z,0.07
2023-01-13T20:47:48.931Z,0.04
2023-01-13T20:50:17.789Z,0.03
2023-01-13T20:52:46.985Z,0.02
2023-01-13T20:55:15.332Z,0.01
2023-01-13T20:57:43.814Z,0.04
2023-01-13T21:00:13.578Z,0.08
2023-01-13T21:02:41.968Z,0.07
2023-01-13T21:05:10.272Z,0.04
2023-01-13T21:07:38.442Z,0.03
2023-01-13T21:10:11.339Z,0.01
2023-01-13T21:12:58.115Z,-0.03
2023-01-13T21:15:27.649Z,-0.06
2023-01-13T21:18:14.443Z,-0.09
2023-01-13T21:20:42.473Z,-0.18
2023-01-13T21:23:10.990Z,-0.26
2023-01-13T21:25:40.589Z,-0.26
2023-01-13T21:28:11.748Z,-0.27
2023-01-13T21:30:40.151Z,-0.27
2023-01-13T21:33:13.510Z,-0.28
2023-01-13T21:35:41.701Z,-0.27
2023-01-13T21:38:11.289Z,-0.27
2023-01-13T21:40:39.472Z,-0.25
2023-01-13T21:43:30.319Z,-0.27
2023-01-13T21:46:17.280Z,-0.32
2023-01-13T21:48:45.616Z,-0.35
2023-01-13T21:51:13.810Z,-0.34
2023-01-13T21:53:42.139Z,-0.33
2023-01-13T21:56:10.299Z,-0.31
2023-01-13T21:58:39.245Z,-0.25
2023-01-13T22:01:09.778Z,-0.14
2023-01-13T22:03:59.722Z,-0.01
2023-01-13T22:06:27.989Z,0.16
2023-01-13T22:09:00.068Z,0.30
2023-01-13T22:11:28.662Z,0.38
2023-01-13T22:14:06.858Z,0.42
2023-01-13T22:16:41.873Z,0.45
2023-01-13T22:19:10.496Z,0.47
2023-01-13T22:21:40.011Z,0.51
2023-01-13T22:24:09.523Z,0.52
2023-01-13T22:26:37.605Z,0.51
2023-01-13T22:29:05.909Z,0.48
2023-01-13T22:31:34.155Z,0.50
2023-01-13T22:34:02.377Z,0.53
2023-01-13T22:36:30.564Z,0.56
2023-01-13T22:39:00.656Z,0.57
2023-01-13T22:41:29.007Z,0.68
2023-01-13T22:43:57.268Z,0.80
2023-01-13T22:46:25.536Z,0.86
2023-01-13T22:48:56.098Z,0.95
2023-01-13T22:51:24.346Z,1.04
2023-01-13T22:53:53.588Z,1.09
2023-01-13T22:56:23.820Z,1.15
2023-01-13T22:59:00.543Z,1.16
2023-01-13T23:01:31.726Z,1.17
2023-01-13T23:04:01.744Z,1.21
2023-01-13T23:06:31.578Z,1.25
2023-01-13T23:09:00.673Z,1.33
2023-01-13T23:11:30.171Z,1.39
2023-01-13T23:14:01.295Z,1.45
2023-01-13T23:16:32.550Z,1.51
2023-01-13T23:19:00.882Z,1.59
2023-01-13T23:21:31.445Z,1.63
2023-01-13T23:24:00.480Z,1.62
2023-01-13T23:26:29.465Z,1.64
2023-01-13T23:29:04.211Z,1.68
2023-01-13T23:31:32.849Z,1.75
2023-01-13T23:34:01.353Z,1.82
2023-01-13T23:36:29.873Z,1.87
2023-01-13T23:38:59.678Z,1.87
2023-01-13T23:41:28.586Z,1.87
2023-01-13T23:43:59.218Z,1.87
2023-01-13T23:46:30.371Z,1.87
2023-01-13T23:48:58.938Z,1.88
2023-01-13T23:51:30.018Z,1.94
2023-01-13T23:53:59.532Z,2.01
2023-01-13T23:56:30.591Z,2.09
2023-01-13T23:58:58.976Z,2.14
